Time;durP1;ratioP1;P1;durP2;ratioP2;P2;SDS_P1;SDS_P2;PMS_P1;PMS_P2;Temp;Humidity;BMP_temperature;BMP_pressure;BME280_temperature;BME280_humidity;BME280_pressure;Samples;Min_cycle;Max_cycle;Signal;HPM_P1;HPM_P2
2021/06/23 00:01:40;;;;;;;5.10;1.20;;;;;;;18.14;100.00;100480.87;1790859;79;20970;-43
2021/06/23 00:04:25;;;;;;;1.20;0.72;;;;;;;18.15;100.00;100475.60;1781861;79;20981;-43
2021/06/23 00:07:10;;;;;;;0.93;0.90;;;;;;;18.20;100.00;100477.35;1770882;79;20997;-49
2021/06/23 00:09:55;;;;;;;2.90;1.25;;;;;;;18.24;100.00;100466.69;1785172;79;21061;-49
2021/06/23 00:12:42;;;;;;;3.52;1.05;;;;;;;18.29;100.00;100455.21;1765016;80;20966;-48
2021/06/23 00:15:27;;;;;;;3.20;1.52;;;;;;;18.33;100.00;100459.75;1765202;80;21384;-49
2021/06/23 00:18:12;;;;;;;1.65;1.30;;;;;;;18.37;100.00;100457.95;1752789;80;21002;-48
2021/06/23 00:20:57;;;;;;;4.17;1.70;;;;;;;18.38;100.00;100452.65;1785930;79;20977;-49
2021/06/23 00:23:42;;;;;;;3.70;1.37;;;;;;;18.38;100.00;100456.80;1754194;80;21523;-49
2021/06/23 00:26:27;;;;;;;1.95;1.30;;;;;;;18.37;100.00;100452.42;1766212;79;21376;-48
2021/06/23 00:29:12;;;;;;;5.70;1.55;;;;;;;18.35;100.00;100449.75;1811136;78;20994;-42
2021/06/23 00:31:58;;;;;;;1.50;1.20;;;;;;;18.33;100.00;100442.34;1765498;80;21380;-49
2021/06/23 00:34:44;;;;;;;3.00;1.42;;;;;;;18.32;100.00;100444.28;1743143;81;20979;-48
2021/06/23 00:37:29;;;;;;;1.72;1.07;;;;;;;18.33;100.00;100444.54;1758446;80;21522;-49
2021/06/23 00:40:15;;;;;;;1.32;0.85;;;;;;;18.34;100.00;100448.11;1783839;79;21078;-48
2021/06/23 00:43:00;;;;;;;6.72;1.15;;;;;;;18.33;100.00;100440.97;1750890;81;20993;-42
2021/06/23 00:45:45;;;;;;;3.40;1.12;;;;;;;18.32;100.00;100450.39;1768845;79;21503;-42
2021/06/23 00:48:30;;;;;;;4.20;1.07;;;;;;;18.31;100.00;100437.14;1782966;79;21375;-49
2021/06/23 00:51:17;;;;;;;1.92;1.15;;;;;;;18.30;100.00;100436.91;1771160;80;21466;-43
2021/06/23 00:54:22;;;;;;;0.98;0.70;;;;;;;18.29;100.00;100442.19;1788764;79;21000;-49
2021/06/23 00:57:08;;;;;;;2.30;1.52;;;;;;;18.26;100.00;100438.70;1741668;80;21000;-42
2021/06/23 00:59:55;;;;;;;3.30;1.75;;;;;;;18.23;100.00;100440.18;1763649;80;21006;-49
2021/06/23 01:02:40;;;;;;;3.00;1.45;;;;;;;18.22;100.00;100439.12;1751579;79;21013;-49
2021/06/23 01:05:26;;;;;;;1.02;0.93;;;;;;;18.21;100.00;100437.51;1747119;80;20975;-49
2021/06/23 01:08:11;;;;;;;2.87;1.52;;;;;;;18.17;100.00;100435.16;1797316;79;21503;-49
2021/06/23 01:10:58;;;;;;;1.62;1.42;;;;;;;18.15;100.00;100441.58;1796485;79;20990;-49
2021/06/23 01:14:03;;;;;;;7.47;1.30;;;;;;;18.13;100.00;100424.53;1769641;79;21453;-43
2021/06/23 01:16:48;;;;;;;2.45;1.70;;;;;;;18.11;100.00;100419.91;1772947;79;20990;-42
2021/06/23 01:19:33;;;;;;;3.12;1.37;;;;;;;18.10;100.00;100425.17;1749957;80;20986;-49
2021/06/23 01:22:18;;;;;;;3.42;1.35;;;;;;;18.09;100.00;100421.60;1675593;84;20986;-42
2021/06/23 01:25:04;;;;;;;2.45;1.07;;;;;;;18.08;100.00;100419.98;1714008;82;20990;-42
2021/06/23 01:27:50;;;;;;;1.17;0.90;;;;;;;18.10;100.00;100423.79;1736438;82;21637;-49
2021/06/23 01:30:35;;;;;;;1.52;1.02;;;;;;;18.09;100.00;100426.33;1736181;82;21608;-41
2021/06/23 01:33:24;;;;;;;1.32;1.02;;;;;;;18.09;100.00;100420.80;1736854;82;21063;-42
2021/06/23 01:36:10;;;;;;;1.12;1.00;;;;;;;18.05;100.00;100429.76;1735399;82;21026;-43
2021/06/23 01:38:56;;;;;;;0.95;0.90;;;;;;;18.02;100.00;100429.02;1736605;82;21378;-50
2021/06/23 01:41:41;;;;;;;1.55;1.35;;;;;;;18.00;100.00;100449.84;1720336;82;20994;-41
2021/06/23 01:44:29;;;;;;;1.72;1.30;;;;;;;17.99;100.00;100455.14;1734810;82;21022;-49
2021/06/23 01:47:14;;;;;;;1.40;1.30;;;;;;;17.95;100.00;100457.77;1738203;80;21054;-49
2021/06/23 01:50:00;;;;;;;0.95;0.93;;;;;;;17.90;100.00;100448.81;1739035;82;21446;-42
2021/06/23 01:52:45;;;;;;;2.17;1.90;;;;;;;17.88;100.00;100449.16;1732965;82;21551;-48
2021/06/23 01:55:32;;;;;;;1.47;0.93;;;;;;;17.86;100.00;100436.23;1737237;82;20975;-48
2021/06/23 01:58:22;;;;;;;2.25;1.22;;;;;;;17.85;100.00;100441.50;1721776;81;21977;-49
2021/06/23 02:01:23;;;;;;;3.95;1.47;;;;;;;17.84;100.00;100441.27;1742490;81;21448;-49
2021/06/23 02:04:28;;;;;;;2.58;1.40;;;;;;;17.82;100.00;100447.69;1738344;81;20987;-49
2021/06/23 02:07:46;;;;;;;0.75;0.75;;;;;;;17.81;100.00;100445.50;1723147;79;21015;-42
2021/06/23 02:11:06;;;;;;;0.80;0.80;;;;;;;17.80;100.00;100434.22;1706879;82;20974;-43
2021/06/23 02:14:21;;;;;;;4.22;1.10;;;;;;;17.82;100.00;100431.91;1703808;82;21465;-44
2021/06/23 02:17:09;;;;;;;0.80;0.80;;;;;;;17.86;100.00;100443.14;1722173;81;21010;-41
2021/06/23 02:19:57;;;;;;;0.95;0.95;;;;;;;17.90;100.00;100440.52;1717481;82;21475;-49
2021/06/23 02:22:53;;;;;;;3.70;1.32;;;;;;;17.93;100.00;100444.84;1771633;79;20993;-42
2021/06/23 02:25:41;;;;;;;0.70;0.70;;;;;;;17.98;100.00;100441.09;1797833;79;21415;-49
2021/06/23 02:28:28;;;;;;;3.60;1.22;;;;;;;18.03;100.00;100440.33;1731231;81;20981;-49
2021/06/23 02:31:13;;;;;;;1.72;0.93;;;;;;;18.08;100.00;100439.92;1778418;77;20994;-49
2021/06/23 02:33:59;;;;;;;1.20;0.75;;;;;;;18.14;100.00;100436.63;1716794;79;21045;-48
2021/06/23 02:36:52;;;;;;;2.98;1.40;;;;;;;18.17;100.00;100437.92;1778527;80;21001;-42
2021/06/23 02:39:37;;;;;;;5.95;1.20;;;;;;;18.20;100.00;100445.55;1786986;79;21060;-41
2021/06/23 02:42:23;;;;;;;3.40;1.00;;;;;;;18.22;100.00;100441.88;1764473;80;21065;-49
2021/06/23 02:45:08;;;;;;;2.25;0.80;;;;;;;18.24;100.00;100447.90;1776092;79;21029;-42
2021/06/23 02:47:53;;;;;;;1.47;1.00;;;;;;;18.26;100.00;100445.05;1746783;80;21002;-49
2021/06/23 02:51:02;;;;;;;2.12;1.45;;;;;;;18.33;100.00;100448.69;1786343;79;21439;-49
2021/06/23 02:53:52;;;;;;;1.20;1.10;;;;;;;18.38;100.00;100451.27;1768451;79;20965;-49
2021/06/23 02:56:37;;;;;;;2.77;0.95;;;;;;;18.42;100.00;100449.47;1783307;80;21013;-42
2021/06/23 02:59:22;;;;;;;1.70;1.22;;;;;;;18.47;100.00;100452.59;1773246;79;21002;-49
2021/06/23 03:02:08;;;;;;;3.20;1.40;;;;;;;18.53;100.00;100447.71;1758010;79;20958;-49
2021/06/23 03:04:53;;;;;;;0.82;0.80;;;;;;;18.58;100.00;100449.70;1758832;81;21436;-42
2021/06/23 03:07:43;;;;;;;5.55;1.55;;;;;;;18.68;100.00;100455.44;1789411;79;21427;-42
2021/06/23 03:10:28;;;;;;;3.50;2.08;;;;;;;18.79;100.00;100452.58;1750802;79;20970;-42
2021/06/23 03:13:25;;;;;;;2.33;1.07;;;;;;;18.89;100.00;100453.56;1778386;79;21049;-49
2021/06/23 03:16:21;;;;;;;2.55;1.17;;;;;;;19.02;100.00;100457.80;1793443;78;21088;-48
2021/06/23 03:19:06;;;;;;;3.25;1.90;;;;;;;19.14;100.00;100452.34;1830296;76;21065;-42
2021/06/23 03:21:53;;;;;;;5.45;2.08;;;;;;;19.28;100.00;100449.28;1775395;78;20942;-43
2021/06/23 03:24:38;;;;;;;1.17;0.90;;;;;;;19.40;100.00;100450.73;1714842;82;21530;-49
2021/06/23 03:27:24;;;;;;;1.35;1.20;;;;;;;19.52;100.00;100445.25;1763305;81;21010;-42
2021/06/23 03:30:10;;;;;;;2.25;1.42;;;;;;;19.63;100.00;100447.59;1759387;79;20988;-49
2021/06/23 03:32:55;;;;;;;3.15;1.42;;;;;;;19.72;100.00;100451.13;1754317;81;21025;-42
2021/06/23 03:35:39;;;;;;;1.25;1.15;;;;;;;19.81;100.00;100458.80;1754537;80;21475;-41
2021/06/23 03:38:24;;;;;;;1.27;1.17;;;;;;;19.89;100.00;100457.09;1767131;81;21021;-42
2021/06/23 03:41:10;;;;;;;3.20;0.85;;;;;;;19.97;100.00;100449.24;1747674;81;20990;-50
2021/06/23 03:43:56;;;;;;;1.45;1.07;;;;;;;20.05;100.00;100453.06;1767980;81;20994;-42
2021/06/23 03:46:43;;;;;;;3.02;1.50;;;;;;;20.12;100.00;100445.00;1736622;81;20991;-43
2021/06/23 03:49:28;;;;;;;11.63;4.55;;;;;;;20.19;100.00;100434.15;1742032;80;20974;-49
2021/06/23 03:52:14;;;;;;;5.72;2.85;;;;;;;20.30;100.00;100430.34;1731938;82;21427;-44
2021/06/23 03:55:00;;;;;;;4.97;1.72;;;;;;;20.44;100.00;100426.65;1767946;80;21072;-49
2021/06/23 03:57:49;;;;;;;2.00;1.40;;;;;;;20.60;99.63;100427.61;1740048;81;21563;-49
2021/06/23 04:00:34;;;;;;;4.67;1.37;;;;;;;20.76;99.00;100424.93;1745121;81;21367;-43
2021/06/23 04:03:24;;;;;;;3.10;1.27;;;;;;;20.94;98.39;100419.92;1735099;80;21432;-50
2021/06/23 04:06:23;;;;;;;3.30;1.25;;;;;;;21.11;97.74;100413.87;1760258;80;20998;-43
2021/06/23 04:09:09;;;;;;;1.42;1.17;;;;;;;21.28;96.93;100414.97;1775838;80;20971;-42
2021/06/23 04:11:55;;;;;;;2.42;1.50;;;;;;;21.43;96.08;100415.64;1756952;80;20986;-48
2021/06/23 04:14:40;;;;;;;5.37;2.67;;;;;;;21.60;95.38;100415.11;1737569;81;21030;-49
2021/06/23 04:17:25;;;;;;;6.60;2.52;;;;;;;21.75;95.53;100415.72;1736172;81;20990;-42
2021/06/23 04:20:11;;;;;;;1.42;1.30;;;;;;;21.87;95.17;100424.00;1773652;80;21100;-43
2021/06/23 04:23:01;;;;;;;2.92;1.57;;;;;;;21.99;94.46;100422.33;1767138;79;21005;-49
2021/06/23 04:25:48;;;;;;;1.77;1.67;;;;;;;22.11;94.38;100422.25;1813362;79;20965;-45
2021/06/23 04:28:32;;;;;;;1.82;1.70;;;;;;;22.18;94.50;100421.04;1813277;79;21006;-43
2021/06/23 04:31:19;;;;;;;4.75;1.75;;;;;;;22.25;94.82;100416.25;1787864;79;21817;-50
2021/06/23 04:34:04;;;;;;;1.30;1.17;;;;;;;22.27;94.82;100416.70;1781475;80;20981;-50
2021/06/23 04:36:48;;;;;;;2.58;1.80;;;;;;;22.32;94.26;100421.99;1791426;79;21439;-43
2021/06/23 04:39:33;;;;;;;3.02;1.42;;;;;;;22.43;93.73;100420.88;1756045;80;20982;-50
2021/06/23 04:42:25;;;;;;;;;;;;;;;22.58;93.23;100414.48;1788649;79;21033;-44
2021/06/23 04:45:12;;;;;;;1.25;1.10;;;;;;;22.73;91.73;100413.64;1760733;80;20403;-50
2021/06/23 04:47:59;;;;;;;2.92;1.25;;;;;;;22.86;90.60;100423.27;1811240;79;20865;-49
2021/06/23 04:50:44;;;;;;;1.47;1.37;;;;;;;23.01;89.66;100439.16;1812342;78;21040;-51
2021/06/23 04:53:37;;;;;;;1.77;1.22;;;;;;;23.15;89.00;100432.52;1813483;79;21377;-42
2021/06/23 04:56:23;;;;;;;1.52;1.07;;;;;;;23.29;87.35;100453.50;1808216;78;21026;-44
2021/06/23 04:59:08;;;;;;;2.15;1.22;;;;;;;23.37;86.56;100437.16;1773073;80;20923;-50
2021/06/23 05:01:53;;;;;;;2.62;1.10;;;;;;;23.44;84.96;100428.91;1799658;78;20979;-43
2021/06/23 05:04:39;;;;;;;2.15;0.82;;;;;;;23.50;82.82;100426.66;1777060;80;20989;-44
2021/06/23 05:07:23;;;;;;;1.35;1.02;;;;;;;23.51;82.23;100443.00;1753527;81;20975;-43
2021/06/23 05:10:10;;;;;;;1.27;1.10;;;;;;;23.49;81.77;100441.20;1810156;78;21034;-51
2021/06/23 05:12:54;;;;;;;2.37;1.25;;;;;;;23.48;81.85;100452.11;1795931;79;20998;-50
2021/06/23 05:15:39;;;;;;;2.52;1.60;;;;;;;23.46;81.49;100442.50;1768140;80;21008;-49
2021/06/23 05:18:25;;;;;;;2.50;1.10;;;;;;;23.49;80.88;100440.36;1783008;79;20990;-43
2021/06/23 05:21:09;;;;;;;1.45;1.20;;;;;;;23.52;79.60;100434.08;1815829;78;21038;-50
2021/06/23 05:23:55;;;;;;;1.92;1.25;;;;;;;23.65;80.08;100433.33;1755427;81;21014;-43
2021/06/23 05:26:39;;;;;;;0.98;0.82;;;;;;;23.81;80.64;100449.39;1748552;80;21048;-43
2021/06/23 05:29:25;;;;;;;1.72;1.40;;;;;;;23.97;80.31;100440.34;1793560;79;20998;-49
2021/06/23 05:32:10;;;;;;;1.30;1.20;;;;;;;24.15;79.51;100445.44;1754473;81;21042;-50
2021/06/23 05:34:55;;;;;;;3.70;1.17;;;;;;;24.35;78.72;100446.98;1734403;82;20883;-44
2021/06/23 05:37:39;;;;;;;2.10;1.10;;;;;;;24.62;78.72;100441.47;1765500;80;20970;-49
2021/06/23 05:40:24;;;;;;;1.40;1.30;;;;;;;24.93;77.85;100445.94;1737184;80;21017;-50
2021/06/23 05:43:09;;;;;;;1.55;1.37;;;;;;;25.21;75.81;100446.95;1738836;82;21406;-50
2021/06/23 05:45:54;;;;;;;1.32;1.20;;;;;;;25.43;73.21;100438.24;1746495;80;21007;-50
2021/06/23 05:48:38;;;;;;;1.82;1.37;;;;;;;25.54;72.03;100439.76;1747997;81;21522;-50
2021/06/23 05:51:23;;;;;;;2.17;1.62;;;;;;;25.61;71.58;100439.84;1765471;80;21004;-43
2021/06/23 05:54:09;;;;;;;3.05;1.32;;;;;;;25.70;71.22;100447.95;1766947;80;20969;-49
2021/06/23 05:56:55;;;;;;;2.15;1.47;;;;;;;25.85;71.95;100453.11;1728735;82;21732;-43
2021/06/23 05:59:40;;;;;;;5.33;1.90;;;;;;;25.99;70.62;100459.47;1769136;81;21403;-44
2021/06/23 06:02:24;;;;;;;3.58;1.60;;;;;;;26.05;68.45;100454.55;1743747;81;21017;-43
2021/06/23 06:05:11;;;;;;;1.40;1.02;;;;;;;26.08;69.41;100464.97;1753765;80;21041;-50
2021/06/23 06:07:56;;;;;;;2.17;1.77;;;;;;;26.17;70.41;100468.87;1752078;81;20998;-43
2021/06/23 06:10:41;;;;;;;1.85;1.10;;;;;;;26.27;70.15;100463.16;1752274;81;21376;-43
2021/06/23 06:13:26;;;;;;;2.92;1.42;;;;;;;26.35;69.52;100467.02;1758448;81;21648;-49
2021/06/23 06:16:11;;;;;;;1.50;1.05;;;;;;;26.41;68.34;100465.27;1736924;81;21032;-50
2021/06/23 06:18:56;;;;;;;2.40;1.20;;;;;;;26.41;68.23;100460.49;1749006;81;21038;-42
2021/06/23 06:21:41;;;;;;;3.65;1.25;;;;;;;26.45;68.16;100464.11;1734071;82;20982;-50
2021/06/23 06:24:26;;;;;;;1.57;1.07;;;;;;;26.54;68.40;100470.83;1713185;82;21463;-45
2021/06/23 06:27:10;;;;;;;1.60;1.27;;;;;;;26.63;67.71;100470.48;1746255;81;20998;-50
2021/06/23 06:29:55;;;;;;;1.37;1.27;;;;;;;26.70;67.04;100463.53;1762618;81;20975;-50
2021/06/23 06:32:40;;;;;;;2.08;1.62;;;;;;;26.73;66.18;100467.78;1763258;81;20979;-43
2021/06/23 06:35:25;;;;;;;1.60;1.37;;;;;;;26.63;66.21;100468.48;1745523;81;21441;-49
2021/06/23 06:38:10;;;;;;;1.57;1.27;;;;;;;26.48;65.43;100468.93;1765943;80;21018;-43
2021/06/23 06:40:55;;;;;;;2.15;1.50;;;;;;;26.27;65.39;100470.16;1764917;80;21470;-43
2021/06/23 06:43:40;;;;;;;1.55;1.45;;;;;;;26.10;67.12;100468.80;1764758;81;21505;-44
2021/06/23 06:46:25;;;;;;;1.22;0.82;;;;;;;26.04;67.73;100479.55;1760340;81;20990;-50
2021/06/23 06:49:10;;;;;;;3.47;2.30;;;;;;;26.07;68.59;100480.77;1763810;81;21002;-42
2021/06/23 06:52:00;;;;;;;1.12;1.00;;;;;;;26.20;68.73;100474.29;1764012;81;21009;-50
2021/06/23 06:54:45;;;;;;;1.70;1.20;;;;;;;26.34;68.39;100456.23;1739632;80;21005;-50
2021/06/23 06:57:30;;;;;;;5.70;1.42;;;;;;;26.53;68.36;100443.41;1743005;82;21337;-49
2021/06/23 07:00:16;;;;;;;1.65;1.55;;;;;;;26.71;68.27;100445.55;1743018;82;21076;-44
2021/06/23 07:03:02;;;;;;;1.95;1.45;;;;;;;26.89;67.82;100446.45;1758784;81;21018;-50
2021/06/23 07:05:47;;;;;;;3.12;1.00;;;;;;;27.04;68.14;100447.34;1710421;81;21029;-43
2021/06/23 07:08:32;;;;;;;2.98;1.57;;;;;;;27.12;67.20;100450.98;1717410;81;20997;-45
2021/06/23 07:11:17;;;;;;;1.40;1.27;;;;;;;27.19;67.11;100456.06;1736808;82;21405;-43
2021/06/23 07:14:02;;;;;;;0.85;0.82;;;;;;;27.23;67.06;100470.13;1717502;81;20994;-50
2021/06/23 07:16:47;;;;;;;3.10;1.47;;;;;;;27.22;65.99;100467.09;1723535;83;21001;-50
2021/06/23 07:19:32;;;;;;;1.85;1.40;;;;;;;27.17;66.49;100489.27;1724281;83;21033;-44
2021/06/23 07:22:16;;;;;;;1.90;1.37;;;;;;;27.12;66.97;100488.84;1737322;81;20997;-50
2021/06/23 07:25:04;;;;;;;1.92;1.40;;;;;;;27.11;67.13;100490.05;1758952;80;20903;-50
2021/06/23 07:27:49;;;;;;;1.37;1.20;;;;;;;27.11;66.95;100496.46;1758427;81;20990;-50
2021/06/23 07:30:34;;;;;;;1.27;1.17;;;;;;;27.01;67.58;100498.00;1756897;81;20933;-50
2021/06/23 07:33:19;;;;;;;1.60;1.40;;;;;;;26.99;68.15;100504.59;1759685;81;21462;-44
2021/06/23 07:39:10;;;;;;;1.42;1.32;;;;;;;27.17;69.10;100510.91;1764082;81;20955;-50
2021/06/23 07:41:55;;;;;;;5.47;2.00;;;;;;;27.30;68.68;100513.64;1762019;81;20990;-43
2021/06/23 07:44:50;;;;;;;1.40;1.30;;;;;;;27.39;66.78;100518.28;1758667;81;21047;-50
2021/06/23 07:47:37;;;;;;;2.25;1.55;;;;;;;27.48;66.91;100512.94;1764663;81;21110;-50
2021/06/23 07:50:21;;;;;;;1.57;1.47;;;;;;;27.71;66.96;100507.80;1763673;81;21035;-42
2021/06/23 07:53:15;;;;;;;3.50;1.35;;;;;;;27.90;64.91;100513.73;1763865;81;20968;-50
2021/06/23 07:56:22;;;;;;;1.62;1.12;;;;;;;27.87;63.42;100511.11;1764778;80;21072;-51
2021/06/23 08:10:53;;;;;;;1.75;1.30;;;;;;;27.69;65.72;100519.23;1750941;81;21005;-51
2021/06/23 08:13:37;;;;;;;1.70;1.12;;;;;;;28.18;65.22;100513.59;1743183;82;21520;-51
2021/06/23 08:16:21;;;;;;;2.75;1.52;;;;;;;28.60;62.55;100514.27;1764968;81;21008;-45
2021/06/23 08:19:06;;;;;;;1.52;1.42;;;;;;;28.90;62.41;100520.08;1762127;81;21472;-50
2021/06/23 08:21:51;;;;;;;1.72;1.40;;;;;;;29.18;59.21;100527.72;1764376;81;20990;-43
2021/06/23 08:24:38;;;;;;;2.67;1.77;;;;;;;29.32;59.41;100531.09;1781358;80;21413;-44
2021/06/23 08:27:22;;;;;;;1.82;1.42;;;;;;;29.50;58.89;100527.64;1762310;81;20999;-49
2021/06/23 08:30:08;;;;;;;1.50;1.07;;;;;;;29.65;56.65;100537.41;1801349;79;20998;-43
2021/06/23 08:32:55;;;;;;;2.17;1.50;;;;;;;29.84;57.92;100542.59;1742667;80;21540;-49
2021/06/23 08:35:40;;;;;;;1.70;1.27;;;;;;;30.06;57.31;100541.89;1762309;80;21866;-49
2021/06/23 08:38:24;;;;;;;1.72;1.40;;;;;;;30.32;56.72;100543.39;1739697;81;20982;-43
2021/06/23 08:41:08;;;;;;;2.20;1.25;;;;;;;30.53;55.63;100552.91;1742779;81;21420;-42
2021/06/23 08:43:58;;;;;;;1.22;1.10;;;;;;;30.56;55.20;100562.73;1764374;81;20974;-49
2021/06/23 08:46:43;;;;;;;2.33;1.10;;;;;;;30.62;55.03;100564.52;1751873;80;21874;-50
2021/06/23 08:49:29;;;;;;;1.32;1.15;;;;;;;30.73;55.72;100560.20;1796760;79;20978;-49
2021/06/23 08:52:14;;;;;;;1.62;1.25;;;;;;;30.89;55.69;100566.77;1778345;79;20972;-49
2021/06/23 08:54:58;;;;;;;1.80;1.50;;;;;;;31.03;54.84;100568.02;1756200;80;20990;-45
2021/06/23 08:57:43;;;;;;;2.02;1.40;;;;;;;30.93;54.61;100557.64;1766844;79;21623;-43
2021/06/23 09:00:28;;;;;;;3.20;1.35;;;;;;;30.91;54.88;100574.17;1724918;82;21025;-50
2021/06/23 09:03:13;;;;;;;1.95;1.47;;;;;;;31.01;54.86;100564.81;1765579;80;21022;-43
2021/06/23 09:05:59;;;;;;;1.20;1.10;;;;;;;31.11;53.68;100551.23;1763202;80;20948;-44
2021/06/23 09:08:45;;;;;;;1.95;1.67;;;;;;;31.16;54.02;100560.66;1744436;80;21018;-49
2021/06/23 09:11:30;;;;;;;1.37;1.27;;;;;;;31.20;52.92;100568.47;1764078;81;20915;-49
2021/06/23 09:14:16;;;;;;;1.65;1.35;;;;;;;31.10;52.75;100552.44;1739310;81;21422;-50
2021/06/23 09:17:15;;;;;;;1.37;1.27;;;;;;;30.91;51.66;100561.48;1741634;82;47360;-44
2021/06/23 09:20:00;;;;;;;1.62;1.52;;;;;;;30.59;53.25;100554.08;1742899;82;20984;-43
2021/06/23 09:22:45;;;;;;;1.27;1.12;;;;;;;30.53;54.27;100544.44;1743333;81;21023;-42
2021/06/23 09:25:34;;;;;;;1.62;1.42;;;;;;;30.59;54.95;100530.11;1764957;80;21057;-43
2021/06/23 09:28:17;;;;;;;2.17;1.60;;;;;;;30.58;54.54;100528.49;1762062;81;21398;-49
2021/06/23 09:31:05;;;;;;;3.75;1.87;;;;;;;30.68;55.99;100526.19;1763894;80;20975;-43
2021/06/23 09:33:49;;;;;;;1.87;1.62;;;;;;;30.95;56.50;100529.20;1736569;79;22031;-43
2021/06/23 09:36:33;;;;;;;3.98;1.05;;;;;;;31.24;55.76;100526.91;1678959;85;21499;-49
2021/06/23 09:39:21;;;;;;;1.25;0.88;;;;;;;31.38;53.75;100528.78;1706434;82;21017;-43
2021/06/23 09:42:07;;;;;;;2.20;1.67;;;;;;;31.26;54.23;100530.73;1754171;80;20986;-49
2021/06/23 09:45:06;;;;;;;1.82;1.70;;;;;;;31.13;53.59;100533.87;1743377;82;20999;-49
2021/06/23 09:48:00;;;;;;;1.30;1.00;;;;;;;30.83;54.54;100538.98;1764414;80;21004;-44
2021/06/23 09:50:45;;;;;;;1.65;1.50;;;;;;;30.50;54.55;100536.82;1763190;81;20981;-43
2021/06/23 09:53:30;;;;;;;1.75;1.62;;;;;;;30.18;56.64;100530.14;1765309;80;21044;-49
2021/06/23 09:56:31;;;;;;;2.37;1.32;;;;;;;30.16;57.30;100538.81;1786872;79;21988;-49
2021/06/23 09:59:36;;;;;;;1.55;1.30;;;;;;;30.20;57.45;100553.70;1788203;79;21036;-44
2021/06/23 10:02:30;;;;;;;1.27;1.17;;;;;;;30.16;58.32;100540.22;1765518;81;21557;-42
2021/06/23 10:05:25;;;;;;;2.92;1.70;;;;;;;30.21;58.87;100546.22;1765182;81;21080;-43
2021/06/23 10:08:22;;;;;;;3.27;1.95;;;;;;;30.33;58.58;100547.00;1755138;80;21036;-50
2021/06/23 10:11:08;;;;;;;1.85;1.50;;;;;;;30.35;58.00;100551.63;1731976;82;20962;-49
2021/06/23 10:13:54;;;;;;;2.12;1.90;;;;;;;30.27;58.16;100563.55;1733209;82;21463;-44
2021/06/23 10:16:40;;;;;;;1.52;1.27;;;;;;;30.12;57.86;100559.16;1760778;79;21099;-50
2021/06/23 10:19:25;;;;;;;1.45;1.35;;;;;;;30.10;58.55;100558.79;1766772;79;21415;-50
2021/06/23 10:22:10;;;;;;;3.77;1.50;;;;;;;30.10;58.19;100568.04;1736977;81;21050;-46
2021/06/23 10:24:55;;;;;;;2.42;1.37;;;;;;;30.00;58.73;100559.84;1735109;82;20982;-43
2021/06/23 10:27:42;;;;;;;3.17;1.35;;;;;;;30.00;58.53;100564.06;1735005;82;21085;-50
2021/06/23 10:30:28;;;;;;;3.08;1.77;;;;;;;29.83;57.83;100559.92;1735928;82;21014;-50
2021/06/23 10:33:14;;;;;;;1.85;1.22;;;;;;;29.68;58.69;100563.40;1735227;82;21002;-44
2021/06/23 10:35:59;;;;;;;2.55;1.90;;;;;;;29.57;59.39;100552.95;1736609;82;20917;-43
2021/06/23 10:38:46;;;;;;;3.10;1.22;;;;;;;29.56;59.22;100559.77;1736659;82;21064;-44
2021/06/23 10:41:42;;;;;;;3.50;1.55;;;;;;;29.55;58.97;100558.77;1712670;81;21014;-43
2021/06/23 10:44:32;;;;;;;2.00;1.60;;;;;;;29.54;58.90;100546.70;1706557;84;21006;-44
2021/06/23 10:47:39;;;;;;;3.12;2.08;;;;;;;29.51;59.25;100557.38;1711930;82;21061;-50
2021/06/23 10:50:31;;;;;;;2.15;1.62;;;;;;;29.44;59.52;100557.39;1724780;82;20981;-45
2021/06/23 10:53:36;;;;;;;1.50;1.37;;;;;;;29.27;59.97;100564.66;1736573;82;21027;-49
2021/06/23 10:56:42;;;;;;;4.67;2.05;;;;;;;29.17;61.33;100567.50;1736797;82;21051;-45
2021/06/23 10:59:34;;;;;;;1.62;1.50;;;;;;;29.10;61.13;100570.52;1732344;81;21480;-50
2021/06/23 11:02:34;;;;;;;2.52;1.98;;;;;;;29.10;61.64;100567.70;1734322;82;21148;-50
2021/06/23 11:05:22;;;;;;;4.08;1.80;;;;;;;29.13;62.38;100573.95;1761943;80;21018;-43
2021/06/23 11:08:32;;;;;;;1.77;1.65;;;;;;;29.19;62.14;100572.92;1761328;81;20967;-49
2021/06/23 11:11:20;;;;;;;2.20;1.87;;;;;;;29.29;62.14;100564.27;1764201;80;21613;-42
2021/06/23 11:14:16;;;;;;;1.82;1.65;;;;;;;29.43;61.89;100576.91;1763787;81;21421;-43
2021/06/23 11:17:31;;;;;;;2.65;1.75;;;;;;;29.45;61.43;100578.72;1742319;81;21014;-50
2021/06/23 11:20:27;;;;;;;4.10;2.27;;;;;;;29.33;61.76;100566.48;1732072;82;21092;-50
2021/06/23 11:23:46;;;;;;;2.05;1.50;;;;;;;29.22;63.11;100572.72;1764094;81;21026;-43
2021/06/23 11:26:38;;;;;;;3.22;2.15;;;;;;;29.09;62.72;100571.73;1729403;81;21584;-45
2021/06/23 11:29:24;;;;;;;4.33;2.47;;;;;;;28.88;63.63;100581.55;1720657;82;21009;-43
2021/06/23 11:32:10;;;;;;;3.90;2.02;;;;;;;28.68;64.80;100581.13;1763679;81;20987;-44
2021/06/23 11:34:55;;;;;;;2.65;1.70;;;;;;;28.54;65.19;100576.31;1765150;81;21046;-43
2021/06/23 11:37:40;;;;;;;3.05;1.82;;;;;;;28.43;66.19;100579.67;1765300;81;20984;-50
2021/06/23 11:40:26;;;;;;;2.15;1.12;;;;;;;28.39;66.54;100579.67;1765468;81;21062;-50
2021/06/23 11:43:11;;;;;;;1.52;1.37;;;;;;;28.34;66.32;100583.45;1765436;81;21053;-43
2021/06/23 11:45:56;;;;;;;2.02;1.52;;;;;;;28.32;66.20;100578.86;1765170;81;21066;-43
2021/06/23 11:48:42;;;;;;;3.83;1.90;;;;;;;28.29;65.94;100581.86;1765344;81;21018;-43
2021/06/23 11:51:27;;;;;;;2.12;1.65;;;;;;;28.21;65.69;100582.41;1765544;81;21043;-50
2021/06/23 11:54:13;;;;;;;2.15;1.52;;;;;;;28.10;65.96;100588.61;1765109;81;20943;-50
2021/06/23 11:57:00;;;;;;;3.12;1.90;;;;;;;27.98;66.21;100585.55;1764941;81;21012;-50
2021/06/23 11:59:47;;;;;;;2.90;1.50;;;;;;;27.90;67.12;100594.36;1743164;81;21023;-44
2021/06/23 12:02:31;;;;;;;2.75;1.55;;;;;;;27.88;67.68;100598.95;1693746;83;21886;-43
2021/06/23 12:05:16;;;;;;;2.60;1.40;;;;;;;27.87;68.05;100602.37;1762651;81;21148;-44
2021/06/23 12:08:03;;;;;;;2.00;1.20;;;;;;;27.82;68.24;100606.95;1763746;81;21433;-43
2021/06/23 12:10:48;;;;;;;3.02;1.52;;;;;;;27.79;68.04;100611.11;1762277;81;21028;-50
2021/06/23 12:13:35;;;;;;;2.10;1.37;;;;;;;27.78;68.22;100600.48;1752383;80;20981;-49
2021/06/23 12:16:21;;;;;;;4.40;2.08;;;;;;;27.77;68.19;100601.69;1734970;80;21008;-50
2021/06/23 12:19:05;;;;;;;5.53;2.70;;;;;;;27.75;67.39;100603.28;1772522;80;21026;-43
2021/06/23 12:21:50;;;;;;;2.83;2.05;;;;;;;27.71;67.81;100605.25;1759621;81;20965;-48
2021/06/23 12:24:35;;;;;;;1.72;1.30;;;;;;;27.65;67.64;100613.25;1756508;79;21411;-43
2021/06/23 12:27:20;;;;;;;2.15;1.95;;;;;;;27.58;68.26;100600.58;1743383;82;20986;-43
2021/06/23 12:30:07;;;;;;;4.53;1.67;;;;;;;27.55;68.54;100607.78;1741280;82;21391;-43
2021/06/23 12:32:52;;;;;;;3.17;1.32;;;;;;;27.51;68.92;100604.74;1742953;81;21061;-43
2021/06/23 12:35:38;;;;;;;1.72;1.17;;;;;;;27.44;69.43;100606.29;1770854;81;20983;-43
2021/06/23 12:38:23;;;;;;;2.00;1.85;;;;;;;27.40;69.50;100606.88;1759856;81;20978;-45
2021/06/23 12:41:08;;;;;;;5.30;1.30;;;;;;;27.37;69.57;100606.23;1741115;82;21467;-50
2021/06/23 12:43:54;;;;;;;2.77;1.70;;;;;;;27.31;69.92;100609.83;1741131;81;21786;-50
2021/06/23 12:46:39;;;;;;;6.03;2.52;;;;;;;27.26;69.99;100615.80;1741019;82;21527;-42
2021/06/23 12:49:24;;;;;;;2.60;2.08;;;;;;;27.19;70.17;100621.55;1740789;82;20991;-43
2021/06/23 12:52:09;;;;;;;1.27;1.05;;;;;;;27.14;70.20;100628.09;1740862;82;21429;-49
2021/06/23 12:54:53;;;;;;;2.08;1.50;;;;;;;27.05;71.18;100619.19;1755102;81;20980;-43
2021/06/23 12:57:38;;;;;;;3.67;2.72;;;;;;;26.98;71.34;100609.54;1771701;80;21902;-43
2021/06/23 13:00:23;;;;;;;8.58;3.15;;;;;;;26.97;71.53;100617.73;1771937;80;21560;-43
2021/06/23 13:03:09;;;;;;;7.80;3.87;;;;;;;26.92;71.62;100616.69;1771935;80;20997;-49
2021/06/23 13:05:57;;;;;;;9.05;3.95;;;;;;;26.88;72.03;100611.66;1771619;80;21025;-49
2021/06/23 13:08:40;;;;;;;4.78;2.52;;;;;;;26.85;72.64;100620.02;1770928;81;20986;-44
2021/06/23 13:11:25;;;;;;;8.78;3.90;;;;;;;26.80;72.96;100621.17;1771555;80;21457;-43